TimeCST,TemperatureF,Dew PointF,Humidity,Sea Level PressureIn,VisibilityMPH,Wind Direction,Wind SpeedMPH,Gust SpeedMPH,PrecipitationIn,Events,Conditions,WindDirDegrees,DateUTC
12:52 AM,33.1,26.1,75,30.17,10.0,Calm,Calm,-,N/A,,Clear,0,2013-02-12 06:52:00
1:52 AM,32.0,26.1,79,30.17,10.0,Calm,Calm,-,N/A,,Clear,0,2013-02-12 07:52:00
2:52 AM,30.0,24.1,79,30.16,10.0,Calm,Calm,-,N/A,,Clear,0,2013-02-12 08:52:00
3:52 AM,30.0,24.1,79,30.16,10.0,Calm,Calm,-,N/A,,Clear,0,2013-02-12 09:52:00
4:52 AM,30.0,24.1,79,30.17,10.0,Calm,Calm,-,N/A,,Clear,0,2013-02-12 10:52:00
5:52 AM,30.0,24.1,79,30.16,10.0,Calm,Calm,-,N/A,,Clear,0,2013-02-12 11:52:00
6:52 AM,28.9,23.0,78,30.16,10.0,Calm,Calm,-,N/A,,Clear,0,2013-02-12 12:52:00
7:52 AM,32.0,27.0,82,30.17,10.0,Calm,Calm,-,N/A,,Partly Cloudy,0,2013-02-12 13:52:00
8:52 AM,39.9,28.0,63,30.18,10.0,Calm,Calm,-,N/A,,Clear,0,2013-02-12 14:52:00
9:52 AM,43.0,30.0,60,30.14,10.0,East,9.2,-,N/A,,Scattered Clouds,80,2013-02-12 15:52:00
10:52 AM,46.9,30.9,54,30.14,10.0,ENE,3.5,-,N/A,,Clear,60,2013-02-12 16:52:00
11:52 AM,46.9,28.9,50,30.14,10.0,Calm,Calm,-,N/A,,Clear,0,2013-02-12 17:52:00
12:52 PM,48.0,30.0,50,30.12,10.0,Calm,Calm,-,N/A,,Mostly Cloudy,0,2013-02-12 18:52:00
1:52 PM,48.9,28.9,46,30.08,10.0,Calm,Calm,-,N/A,,Overcast,0,2013-02-12 19:52:00
2:52 PM,48.9,30.0,48,30.03,10.0,NNE,4.6,-,N/A,,Clear,30,2013-02-12 20:52:00
3:52 PM,48.0,30.0,50,30.04,10.0,NNE,4.6,-,N/A,,Overcast,30,2013-02-12 21:52:00
4:52 PM,46.9,30.9,54,30.03,10.0,Calm,Calm,-,N/A,,Overcast,0,2013-02-12 22:52:00
5:52 PM,46.0,32.0,58,29.99,10.0,NNE,5.8,-,N/A,,Overcast,20,2013-02-12 23:52:00
6:52 PM,44.1,30.9,60,29.98,10.0,East,3.5,-,N/A,,Scattered Clouds,90,2013-02-13 00:52:00
7:52 PM,44.1,32.0,63,29.98,10.0,NNE,4.6,-,N/A,,Overcast,30,2013-02-13 01:52:00
8:52 PM,44.1,32.0,63,29.94,10.0,Calm,Calm,-,N/A,,Overcast,0,2013-02-13 02:52:00
9:52 PM,42.1,32.0,67,29.93,10.0,NNW,4.6,-,N/A,,Overcast,330,2013-02-13 03:52:00
10:52 PM,42.1,33.1,70,29.92,10.0,NNW,4.6,-,N/A,,Overcast,340,2013-02-13 04:52:00
11:52 PM,42.1,33.1,70,29.92,10.0,NNW,4.6,-,N/A,,Overcast,340,2013-02-13 05:52:00